Garey, California
Current Conditions -  °F | °C
As of 3:51 AM on Monday 22 Dec 2014 (Local Time) from KSMX Reporting Station
Clear Clear  
Wind Chill: 60°   Ceiling: Unl
Heat Index: 60°   Visibility: 10mi
Dew Point: 52°   Wind: 13mph
Humidity: 75%   Direction: 300°WNW
Pressure: 30.15"   Gusts: NA
Location:  34.9452°N, 120.389°W
Report Text: KSMX 221151Z AUTO 30011KT 10SM CLR 16/11 A3015 RMK AO2 SLP212 T01560111 10167 20133 58009 TSNO $
Loading
Personal Weather Stations






























Interactive Weather Map New forecast layout! Learn more

10-Day Weather Forecast

Advertisements
Track Severe Weather on mobile